Schell City, MO (64783)

10:39 AM CDT on September 17, 2014 (GMT -0500)
Vernon Co. EOC | Change Station
CLOSE
Current Station
Personal Weather Station
Location: Nevada, MO
Elevation: 900 ft
Nearby Weather Stations

Elev 900 ft 37.84 °N, 94.35 °W | Updated 7 seconds ago

Overcast
Overcast
72.9 °F
Feels Like 70 °F
N
0.0
Wind Variable Wind from WSW
Gusts 1.0 mph

Today
High -- | Low -- °F
--% Chance of Precip.
Yesterday
High -- | Low -- °F
Precip. -- in
7:00 AM 7:21 PM
Waning Crescent, 35% visible
Pressure 29.95 in
Visibility 2.5 miles
Clouds Mostly Cloudy 300 ft
Mostly Cloudy 2800 ft
Overcast 3500 ft
Heat Index 70 °F
Dew Point 70 °F
Humidity 91%
Rainfall 0.89 in
Snow Depth Not available.
UV 2 out of 12
Pollen 6.20 out of 12
Air Quality Not available.
Flu Activity Not available.
METAR KGLY 171535Z AUTO 18005KT 2 1/2SM VCTS -DZ BKN003 BKN028 OVC035 19/19 A2995 RMK AO2 LTG DSNT SE AND S P0003

More Conditions Fewer Conditions

Pressure 29.95 in
Visibility 2.5 miles
Clouds Mostly Cloudy 300 ft
Mostly Cloudy 2800 ft
Overcast 3500 ft
Heat Index 70 °F
Dew Point 70 °F
Humidity 91%
Rainfall 0.89 in
Snow Depth Not available.
UV 2 out of 12
Pollen 6.20 out of 12
Air Quality Not available.
Flu Activity Not available.
METAR KGLY 171535Z AUTO 18005KT 2 1/2SM VCTS -DZ BKN003 BKN028 OVC035 19/19 A2995 RMK AO2 LTG DSNT SE AND S P0003

More Conditions Fewer Conditions

10-Day Weather Forecast

Almanac

Astronomy

Sep. 17, 2014 Rise Set
Actual Time 7:00 AM CDT 7:21 PM CDT
Civil Twilight 6:33 AM CDT 7:47 PM CDT
Nautical Twilight 6:02 AM CDT 8:18 PM CDT
Astronomical Twilight 5:31 AM CDT 8:50 PM CDT
Moon 1:04 AM CDT 3:27 PM CDT
Length of Visible Light 13h 13m
Length of Day
12h 21m
Tomorrow will be 2m 25s shorter.
Waning Crescent, 35% of the Moon is Illuminated
Today
Waning Crescent
Sep 24
New
Oct 1
First Quarter
Oct 8
Full
Oct 15
Last Quarter

Today's Extremes

State Highs State Lows

Community

WunderPhotos

Upload Photos

1,754,068 photos uploaded!

WunderBlogs® & News

Nearby

Snow Depth

Station Depth Elevation
No new snow has been reported.

Earthquake Activity

City Distance Mag. Time & Date
No recent earthquake activity has been reported nearby.
Minimum magnitude displayed is 2.5.

Coastal Water Temperatures

Place Temperature
No Stations Reporting

Nearby Weather Stations